createdAt,value
2017-08-06T00:00:32.454Z,3.50
2017-08-06T00:02:59.950Z,3.67
2017-08-06T00:05:27.411Z,3.70
2017-08-06T00:07:54.857Z,3.70
2017-08-06T00:10:22.301Z,3.75
2017-08-06T00:12:49.839Z,3.80
2017-08-06T00:15:17.272Z,3.90
2017-08-06T00:17:45.591Z,3.78
2017-08-06T00:20:13.003Z,3.63
2017-08-06T00:22:41.247Z,3.40
2017-08-06T00:25:08.881Z,3.80
2017-08-06T00:27:36.361Z,3.80
2017-08-06T00:30:03.806Z,3.60
2017-08-06T00:32:31.249Z,3.70
2017-08-06T00:34:58.818Z,3.53
2017-08-06T00:37:26.262Z,4.10
2017-08-06T00:39:53.702Z,3.78
2017-08-06T00:42:21.242Z,3.50
2017-08-06T00:44:49.489Z,4.25
2017-08-06T00:47:16.903Z,3.80
2017-08-06T00:49:44.386Z,3.60
2017-08-06T00:52:11.846Z,4.40
2017-08-06T00:54:39.277Z,3.80
2017-08-06T00:57:06.720Z,4.15
2017-08-06T00:59:34.155Z,4.32
2017-08-06T01:02:02.368Z,3.80
2017-08-06T01:04:29.835Z,4.40
2017-08-06T01:06:57.294Z,4.00
2017-08-06T01:09:24.728Z,3.70
2017-08-06T01:11:52.171Z,4.07
2017-08-06T01:14:19.667Z,4.37
2017-08-06T01:16:47.108Z,4.00
2017-08-06T01:19:14.582Z,3.85
2017-08-06T01:21:42.038Z,4.30
2017-08-06T01:24:09.501Z,4.60
2017-08-06T01:26:37.056Z,4.80
2017-08-06T01:29:04.487Z,4.37
2017-08-06T01:31:31.959Z,4.30
2017-08-06T01:33:59.391Z,4.22
2017-08-06T01:36:26.870Z,4.80
2017-08-06T01:38:54.307Z,4.55
2017-08-06T01:41:21.751Z,4.60
2017-08-06T01:43:49.182Z,4.40
2017-08-06T01:46:17.425Z,4.65
2017-08-06T01:48:44.867Z,4.60
2017-08-06T01:51:12.335Z,4.78
2017-08-06T01:53:39.774Z,4.47
2017-08-06T01:56:07.240Z,4.40
2017-08-06T01:58:34.685Z,4.10
2017-08-06T02:01:02.123Z,4.80
2017-08-06T02:03:29.571Z,5.20
2017-08-06T02:05:57.060Z,4.40
2017-08-06T02:08:24.514Z,4.65
2017-08-06T02:10:51.987Z,5.17
2017-08-06T02:13:20.190Z,4.87
2017-08-06T02:15:48.386Z,4.47
2017-08-06T02:18:15.883Z,4.78
2017-08-06T02:20:43.306Z,4.70
2017-08-06T02:23:10.802Z,5.25
2017-08-06T02:25:38.234Z,4.50
2017-08-06T02:28:05.707Z,4.70
2017-08-06T02:30:33.174Z,4.50
2017-08-06T02:33:00.610Z,4.62
2017-08-06T02:35:28.075Z,5.18
2017-08-06T02:37:55.658Z,4.80
2017-08-06T02:40:23.197Z,5.15
2017-08-06T02:42:50.653Z,4.65
2017-08-06T02:45:18.106Z,5.03
2017-08-06T02:47:45.536Z,4.50
2017-08-06T02:50:12.970Z,4.70
2017-08-06T02:52:40.413Z,5.18
2017-08-06T02:55:08.643Z,5.20
2017-08-06T02:57:36.105Z,4.95
2017-08-06T03:00:03.561Z,4.82
2017-08-06T03:02:31.007Z,5.40
2017-08-06T03:04:58.466Z,4.80
2017-08-06T03:07:25.908Z,4.97
2017-08-06T03:09:53.364Z,5.60
2017-08-06T03:12:20.823Z,5.45
2017-08-06T03:14:48.262Z,5.12
2017-08-06T03:17:15.761Z,5.20
2017-08-06T03:19:43.227Z,4.57
2017-08-06T03:22:10.660Z,4.80
2017-08-06T03:24:38.858Z,5.00
2017-08-06T03:27:06.458Z,4.80
2017-08-06T03:29:33.904Z,4.70
2017-08-06T03:32:01.341Z,5.10
2017-08-06T03:34:28.772Z,4.30
2017-08-06T03:36:57.110Z,4.70
2017-08-06T03:39:24.553Z,5.47
2017-08-06T03:41:52.015Z,4.82
2017-08-06T03:44:19.434Z,4.82
2017-08-06T03:46:46.915Z,4.62
2017-08-06T03:49:14.354Z,5.33
2017-08-06T03:51:41.810Z,5.00
2017-08-06T03:54:09.250Z,4.78
2017-08-06T03:56:37.182Z,5.07
2017-08-06T03:59:05.418Z,5.40
2017-08-06T04:01:32.866Z,4.97
2017-08-06T04:04:00.325Z,5.65
2017-08-06T04:06:27.751Z,5.62
2017-08-06T04:08:55.217Z,5.25
2017-08-06T04:11:22.659Z,5.40
2017-08-06T04:13:50.114Z,5.37
2017-08-06T04:16:17.549Z,5.05
2017-08-06T04:18:44.987Z,5.05
2017-08-06T04:21:12.435Z,4.90
2017-08-06T04:23:39.876Z,4.50
2017-08-06T04:26:08.066Z,5.00
2017-08-06T04:28:35.531Z,4.62
2017-08-06T04:31:03.095Z,4.40
2017-08-06T04:33:30.554Z,4.90
2017-08-06T04:35:58.003Z,4.10
2017-08-06T04:38:25.492Z,4.87
2017-08-06T04:40:52.949Z,4.25
2017-08-06T04:43:20.438Z,4.50
2017-08-06T04:45:47.904Z,4.30
2017-08-06T04:48:15.343Z,5.50
2017-08-06T04:50:42.808Z,6.40
2017-08-06T04:53:10.238Z,7.97
2017-08-06T04:55:37.719Z,8.50
2017-08-06T04:58:05.199Z,10.20
2017-08-06T05:00:32.626Z,10.73
2017-08-06T05:03:00.110Z,10.27
2017-08-06T05:05:27.559Z,10.10
2017-08-06T05:07:55.008Z,9.80
2017-08-06T05:10:22.517Z,10.10
2017-08-06T05:12:51.378Z,9.45
2017-08-06T05:15:18.811Z,8.60
2017-08-06T05:17:46.263Z,8.52
2017-08-06T05:20:13.747Z,8.10
2017-08-06T05:22:41.182Z,7.50
2017-08-06T05:25:08.659Z,8.10
2017-08-06T05:27:36.118Z,6.95
2017-08-06T05:30:03.679Z,7.03
2017-08-06T05:32:31.115Z,6.32
2017-08-06T05:34:58.680Z,6.30
2017-08-06T05:37:26.117Z,5.80
2017-08-06T05:39:53.564Z,5.78
2017-08-06T05:42:21.027Z,5.40
2017-08-06T05:44:48.437Z,5.10
2017-08-06T05:47:16.674Z,4.70
2017-08-06T05:49:44.131Z,4.72
2017-08-06T05:52:11.571Z,4.95
2017-08-06T05:54:39.054Z,4.60
2017-08-06T05:57:06.503Z,4.97
2017-08-06T05:59:33.972Z,4.80
2017-08-06T06:02:01.519Z,5.43
2017-08-06T06:04:28.978Z,5.10
2017-08-06T06:06:56.559Z,4.70
2017-08-06T06:09:24.231Z,4.50
2017-08-06T06:11:51.666Z,5.20
2017-08-06T06:14:19.114Z,4.60
2017-08-06T06:16:46.569Z,4.60
2017-08-06T06:19:14.246Z,4.57
2017-08-06T06:21:41.689Z,4.40
2017-08-06T06:24:09.144Z,4.20
2017-08-06T06:26:36.596Z,3.80
2017-08-06T06:29:04.197Z,3.97
2017-08-06T06:31:32.434Z,4.00
2017-08-06T06:33:59.875Z,3.97
2017-08-06T06:36:27.314Z,3.70
2017-08-06T06:38:54.840Z,3.30
2017-08-06T06:41:23.072Z,3.60
2017-08-06T06:43:50.617Z,3.20
2017-08-06T06:46:18.102Z,3.50
2017-08-06T06:48:45.629Z,3.20
2017-08-06T06:51:13.090Z,3.33
2017-08-06T06:56:32.683Z,3.22
2017-08-06T06:59:00.137Z,3.10
2017-08-06T07:01:27.596Z,2.72
2017-08-06T07:03:55.128Z,3.15
2017-08-06T07:06:22.599Z,3.28
2017-08-06T07:08:50.827Z,3.00
2017-08-06T07:11:18.291Z,3.20
2017-08-06T07:13:45.727Z,3.27
2017-08-06T07:16:13.911Z,3.10
2017-08-06T07:18:42.153Z,2.75
2017-08-06T07:21:09.608Z,3.00
2017-08-06T07:23:37.131Z,2.80
2017-08-06T07:26:04.644Z,2.70
2017-08-06T07:28:32.083Z,2.50
2017-08-06T07:30:59.541Z,2.30
2017-08-06T07:33:26.966Z,3.43
2017-08-06T07:35:54.483Z,2.70
2017-08-06T07:38:22.670Z,2.78
2017-08-06T07:40:50.254Z,2.60
2017-08-06T07:43:17.672Z,2.30
2017-08-06T07:45:45.903Z,2.60
2017-08-06T07:48:13.327Z,2.20
2017-08-06T07:50:40.834Z,2.30
2017-08-06T07:53:08.374Z,2.60
2017-08-06T07:55:35.807Z,2.30
2017-08-06T07:58:03.287Z,2.40
2017-08-06T08:00:30.754Z,2.10
2017-08-06T08:02:58.192Z,2.33
2017-08-06T08:05:25.649Z,2.10
2017-08-06T08:07:53.076Z,2.00
2017-08-06T08:10:20.503Z,2.45
2017-08-06T08:12:48.705Z,2.17
2017-08-06T08:15:16.132Z,1.92
2017-08-06T08:17:44.375Z,1.80
2017-08-06T08:20:11.798Z,1.80
2017-08-06T08:22:39.230Z,2.20
2017-08-06T08:25:06.702Z,1.80
2017-08-06T08:27:34.179Z,1.95
2017-08-06T08:30:01.641Z,1.80
2017-08-06T08:32:29.172Z,1.92
2017-08-06T08:34:56.608Z,2.10
2017-08-06T08:37:24.043Z,2.10
2017-08-06T08:39:52.270Z,2.30
2017-08-06T08:42:19.698Z,2.03
2017-08-06T08:44:47.225Z,1.92
2017-08-06T08:47:14.667Z,1.62
2017-08-06T08:49:42.200Z,1.67
2017-08-06T08:52:09.846Z,1.30
2017-08-06T08:54:37.327Z,1.70
2017-08-06T08:57:04.775Z,1.55
2017-08-06T08:59:32.230Z,1.48
2017-08-06T09:01:59.659Z,1.77
2017-08-06T09:04:27.112Z,1.50
2017-08-06T09:06:54.664Z,1.48
2017-08-06T09:09:22.895Z,1.50
2017-08-06T09:11:50.444Z,1.60
2017-08-06T09:14:17.896Z,1.50
2017-08-06T09:16:45.350Z,1.52
2017-08-06T09:19:12.793Z,1.60
2017-08-06T09:21:40.240Z,1.50
2017-08-06T09:24:07.725Z,2.00
2017-08-06T09:26:35.183Z,1.90
2017-08-06T09:29:02.716Z,1.80
2017-08-06T09:31:30.168Z,2.15
2017-08-06T09:33:57.645Z,1.70
2017-08-06T09:36:25.129Z,1.60
2017-08-06T09:38:52.566Z,1.70
2017-08-06T09:41:20.121Z,1.50
2017-08-06T09:43:47.546Z,2.10
2017-08-06T09:46:15.030Z,1.50
2017-08-06T09:48:42.483Z,1.60
2017-08-06T09:51:09.942Z,1.80
2017-08-06T09:53:37.379Z,1.92
2017-08-06T09:56:04.823Z,1.90
2017-08-06T09:58:32.265Z,1.80
2017-08-06T10:00:59.726Z,1.73
2017-08-06T10:03:27.228Z,1.83
2017-08-06T10:05:54.672Z,2.00
2017-08-06T10:08:22.118Z,1.80
2017-08-06T10:10:49.611Z,2.10
2017-08-06T10:13:17.130Z,1.58
2017-08-06T10:15:44.702Z,2.10
2017-08-06T10:18:12.144Z,2.40
2017-08-06T10:20:39.599Z,2.00
2017-08-06T10:23:07.074Z,1.50
2017-08-06T10:25:34.553Z,1.70
2017-08-06T10:28:02.086Z,1.53
2017-08-06T10:30:29.551Z,1.40
2017-08-06T10:32:57.006Z,1.70
2017-08-06T10:35:24.443Z,1.40
2017-08-06T10:37:51.914Z,1.90
2017-08-06T10:40:19.382Z,1.97
2017-08-06T10:42:46.832Z,2.20
2017-08-06T10:45:14.390Z,1.80
2017-08-06T10:47:41.844Z,1.50
2017-08-06T10:50:09.301Z,2.40
2017-08-06T10:52:36.758Z,1.90
2017-08-06T10:55:04.202Z,2.10
2017-08-06T10:57:31.648Z,1.52
2017-08-06T10:59:59.078Z,1.70
2017-08-06T11:02:26.678Z,2.10
2017-08-06T11:04:54.114Z,1.83
2017-08-06T11:07:21.588Z,1.60
2017-08-06T11:09:49.044Z,1.85
2017-08-06T11:12:16.497Z,1.70
2017-08-06T11:14:43.954Z,1.65
2017-08-06T11:17:11.498Z,2.03
2017-08-06T11:19:38.993Z,2.35
2017-08-06T11:22:06.427Z,1.80
2017-08-06T11:24:33.866Z,2.00
2017-08-06T11:27:01.342Z,1.80
2017-08-06T11:29:28.798Z,1.60
2017-08-06T11:31:56.292Z,2.00
2017-08-06T11:34:23.826Z,2.00
2017-08-06T11:36:51.270Z,1.75
2017-08-06T11:39:18.740Z,1.83
2017-08-06T11:41:46.680Z,1.70
2017-08-06T11:44:14.138Z,2.00
2017-08-06T11:46:41.572Z,1.90
2017-08-06T11:49:09.071Z,1.58
2017-08-06T11:51:36.533Z,1.60
2017-08-06T11:54:03.995Z,1.67
2017-08-06T11:56:31.624Z,1.50
2017-08-06T11:58:59.055Z,2.00
2017-08-06T12:01:26.481Z,1.70
2017-08-06T12:03:54.736Z,1.50
2017-08-06T12:06:22.151Z,1.70
2017-08-06T12:08:49.590Z,1.50
2017-08-06T12:11:17.081Z,1.73
2017-08-06T12:13:44.547Z,1.50
2017-08-06T12:16:12.086Z,1.40
2017-08-06T12:18:39.518Z,1.80
2017-08-06T12:21:07.731Z,1.90
2017-08-06T12:23:35.194Z,1.70
2017-08-06T12:26:02.646Z,1.60
2017-08-06T12:28:30.102Z,1.80
2017-08-06T12:30:57.534Z,1.55
2017-08-06T12:33:25.098Z,1.30
2017-08-06T12:35:52.521Z,1.52
2017-08-06T12:38:19.953Z,1.90
2017-08-06T12:40:47.397Z,1.40
2017-08-06T12:43:14.847Z,1.65
2017-08-06T12:45:42.278Z,1.80
2017-08-06T12:48:09.705Z,1.70
2017-08-06T12:50:37.262Z,1.40
2017-08-06T12:53:04.699Z,1.70
2017-08-06T12:55:32.233Z,1.40
2017-08-06T12:58:00.436Z,1.45
2017-08-06T13:00:27.911Z,1.60
2017-08-06T13:02:55.347Z,1.50
2017-08-06T13:05:22.785Z,1.50
2017-08-06T13:07:50.278Z,1.40
2017-08-06T13:10:17.726Z,1.60
2017-08-06T13:12:45.177Z,1.50
2017-08-06T13:15:12.750Z,1.40
2017-08-06T13:17:40.207Z,1.80
2017-08-06T13:20:07.630Z,1.60
2017-08-06T13:22:35.050Z,1.50
2017-08-06T13:25:02.517Z,1.40
2017-08-06T13:27:29.935Z,1.40
2017-08-06T13:29:58.138Z,1.33
2017-08-06T13:32:25.633Z,1.23
2017-08-06T13:34:53.172Z,1.40
2017-08-06T13:37:20.628Z,1.60
2017-08-06T13:39:48.077Z,1.63
2017-08-06T13:42:15.541Z,1.40
2017-08-06T13:44:43.018Z,1.20
2017-08-06T13:47:10.555Z,1.40
2017-08-06T13:49:38.115Z,1.30
2017-08-06T13:52:05.657Z,1.20
2017-08-06T13:54:33.128Z,1.60
2017-08-06T13:57:00.567Z,1.70
2017-08-06T13:59:28.815Z,1.90
2017-08-06T14:01:56.261Z,1.90
2017-08-06T14:04:23.719Z,2.12
2017-08-06T14:06:51.158Z,2.30
2017-08-06T14:09:18.612Z,2.00
2017-08-06T14:11:46.043Z,1.70
2017-08-06T14:14:13.538Z,2.10
2017-08-06T14:16:41.019Z,2.30
2017-08-06T14:19:08.541Z,2.00
2017-08-06T14:21:36.010Z,2.12
2017-08-06T14:24:03.444Z,2.37
2017-08-06T14:26:30.934Z,2.20
2017-08-06T14:28:58.363Z,2.30
2017-08-06T14:31:26.682Z,1.98
2017-08-06T14:33:54.122Z,1.80
2017-08-06T14:36:21.639Z,2.10
2017-08-06T14:38:49.124Z,1.60
2017-08-06T14:41:17.356Z,2.28
2017-08-06T14:43:44.818Z,2.40
2017-08-06T14:46:12.253Z,2.22
2017-08-06T14:48:39.725Z,2.60
2017-08-06T14:51:07.176Z,2.30
2017-08-06T14:53:34.612Z,2.10
2017-08-06T14:56:02.093Z,2.00
2017-08-06T14:58:29.540Z,2.28
2017-08-06T15:00:56.994Z,2.00
2017-08-06T15:03:24.464Z,1.85
2017-08-06T15:05:51.894Z,1.70
2017-08-06T15:08:19.328Z,1.52
2017-08-06T15:10:46.782Z,1.80
2017-08-06T15:13:14.226Z,1.50
2017-08-06T15:15:42.434Z,1.80
2017-08-06T15:18:09.934Z,1.60
2017-08-06T15:20:38.130Z,1.60
2017-08-06T15:23:05.622Z,1.58
2017-08-06T15:25:33.158Z,2.12
2017-08-06T15:28:00.645Z,1.40
2017-08-06T15:30:28.088Z,1.50
2017-08-06T15:32:55.515Z,1.60
2017-08-06T15:35:23.002Z,1.70
2017-08-06T15:37:50.438Z,1.48
2017-08-06T15:40:19.248Z,1.60
2017-08-06T15:42:47.623Z,1.50
2017-08-06T15:45:15.110Z,1.70
2017-08-06T15:47:42.805Z,1.70
2017-08-06T15:50:10.346Z,1.33
2017-08-06T15:52:37.873Z,1.30
2017-08-06T15:55:05.314Z,1.33
2017-08-06T15:57:32.799Z,1.50
2017-08-06T16:00:00.295Z,1.62
2017-08-06T16:02:28.535Z,1.40
2017-08-06T16:04:55.979Z,1.60
2017-08-06T16:07:23.470Z,1.60
2017-08-06T16:09:50.959Z,1.50
2017-08-06T16:12:18.406Z,1.20
2017-08-06T16:14:46.643Z,1.60
2017-08-06T16:17:14.163Z,1.57
2017-08-06T16:19:41.592Z,1.40
2017-08-06T16:22:09.040Z,1.55
2017-08-06T16:24:36.471Z,1.50
2017-08-06T16:27:03.931Z,1.10
2017-08-06T16:29:31.456Z,1.65
2017-08-06T16:31:58.890Z,1.60
2017-08-06T16:34:26.385Z,1.40
2017-08-06T16:36:53.824Z,1.50
2017-08-06T16:39:21.370Z,1.50
2017-08-06T16:41:48.876Z,1.50
2017-08-06T16:44:16.302Z,1.65
2017-08-06T16:46:43.858Z,1.80
2017-08-06T16:49:11.310Z,1.25
2017-08-06T16:51:38.746Z,1.25
2017-08-06T16:54:06.308Z,1.50
2017-08-06T16:56:33.770Z,1.30
2017-08-06T16:59:01.230Z,1.60
2017-08-06T17:01:28.690Z,1.75
2017-08-06T17:03:56.250Z,1.35
2017-08-06T17:06:23.790Z,1.10
2017-08-06T17:08:51.214Z,1.40
2017-08-06T17:11:18.671Z,1.30
2017-08-06T17:13:46.098Z,1.70
2017-08-06T17:16:13.591Z,1.80
2017-08-06T17:18:41.046Z,1.50
2017-08-06T17:21:08.494Z,1.80
2017-08-06T17:23:35.950Z,2.60
2017-08-06T17:26:03.374Z,3.17
2017-08-06T17:28:30.820Z,3.70
2017-08-06T17:30:58.255Z,2.05
2017-08-06T17:33:25.679Z,1.73
2017-08-06T17:35:53.337Z,1.70
2017-08-06T17:38:20.804Z,1.40
2017-08-06T17:40:48.351Z,1.90
2017-08-06T17:43:15.972Z,2.20
2017-08-06T17:45:44.271Z,1.60
2017-08-06T17:48:11.750Z,2.08
2017-08-06T17:50:39.186Z,1.70
2017-08-06T17:53:06.755Z,1.42
2017-08-06T17:55:34.291Z,1.80
2017-08-06T17:58:01.703Z,2.30
2017-08-06T18:00:29.898Z,1.60
2017-08-06T18:02:57.419Z,1.58
2017-08-06T18:05:24.844Z,1.90
2017-08-06T18:07:52.367Z,1.55
2017-08-06T18:10:20.594Z,1.63
2017-08-06T18:12:48.054Z,1.80
2017-08-06T18:15:15.519Z,2.20
2017-08-06T18:17:43.022Z,2.20
2017-08-06T18:20:10.527Z,1.70
2017-08-06T18:22:38.047Z,1.70
2017-08-06T18:25:05.620Z,1.90
2017-08-06T18:27:33.074Z,1.95
2017-08-06T18:30:00.523Z,1.90
2017-08-06T18:32:27.960Z,1.70
2017-08-06T18:34:55.413Z,1.62
2017-08-06T18:37:23.650Z,1.80
2017-08-06T18:39:51.098Z,1.50
2017-08-06T18:42:18.637Z,1.70
2017-08-06T18:44:46.099Z,1.65
2017-08-06T18:47:13.533Z,1.80
2017-08-06T18:49:40.991Z,1.90
2017-08-06T18:52:08.495Z,1.77
2017-08-06T18:54:36.033Z,1.90
2017-08-06T18:57:03.462Z,1.90
2017-08-06T18:59:30.907Z,2.10
2017-08-06T19:01:59.153Z,2.08
2017-08-06T19:04:26.700Z,1.90
2017-08-06T19:06:54.127Z,2.28
2017-08-06T19:09:21.602Z,2.03
2017-08-06T19:11:49.163Z,2.60
2017-08-06T19:14:16.718Z,2.22
2017-08-06T19:16:44.159Z,2.10
2017-08-06T19:19:11.727Z,2.58
2017-08-06T19:21:39.179Z,1.90
2017-08-06T19:24:06.698Z,2.15
2017-08-06T19:26:34.194Z,2.70
2017-08-06T19:29:01.668Z,2.90
2017-08-06T19:31:29.191Z,3.00
2017-08-06T19:33:56.599Z,2.70
2017-08-06T19:36:24.814Z,3.47
2017-08-06T19:38:52.295Z,2.80
2017-08-06T19:41:19.754Z,3.03
2017-08-06T19:43:47.177Z,3.83
2017-08-06T19:46:14.632Z,3.10
2017-08-06T19:48:42.131Z,3.25
2017-08-06T19:51:09.560Z,3.20
2017-08-06T19:53:36.998Z,3.30
2017-08-06T19:56:04.427Z,3.40
2017-08-06T19:58:32.643Z,3.10
2017-08-06T20:01:00.070Z,3.10
2017-08-06T20:03:27.579Z,2.80
2017-08-06T20:05:55.043Z,3.00
2017-08-06T20:08:22.495Z,3.42
2017-08-06T20:10:49.920Z,3.12
2017-08-06T20:13:17.394Z,2.92
2017-08-06T20:15:44.830Z,2.92
2017-08-06T20:18:12.267Z,3.30
2017-08-06T20:20:39.867Z,2.93
2017-08-06T20:23:07.303Z,2.65
2017-08-06T20:25:34.743Z,2.90
2017-08-06T20:28:02.245Z,2.80
2017-08-06T20:30:29.703Z,2.85
2017-08-06T20:32:57.155Z,3.30
2017-08-06T20:35:24.638Z,3.30
2017-08-06T20:37:52.847Z,3.28
2017-08-06T20:40:20.338Z,3.50
2017-08-06T20:42:47.835Z,4.10
2017-08-06T20:45:16.070Z,4.70
2017-08-06T20:47:43.577Z,4.60
2017-08-06T20:50:11.090Z,5.10
2017-08-06T20:52:38.729Z,4.57
2017-08-06T20:55:06.158Z,4.03
2017-08-06T20:57:33.601Z,4.70
2017-08-06T21:00:01.836Z,5.10
2017-08-06T21:02:29.408Z,4.70
2017-08-06T21:04:56.975Z,5.05
2017-08-06T21:07:24.513Z,4.70
2017-08-06T21:09:51.943Z,5.15
2017-08-06T21:12:19.418Z,5.43
2017-08-06T21:14:46.870Z,5.00
2017-08-06T21:17:14.346Z,5.55
2017-08-06T21:19:41.767Z,5.80
2017-08-06T21:22:09.247Z,5.00
2017-08-06T21:24:36.694Z,4.87
2017-08-06T21:27:04.128Z,5.45
2017-08-06T21:29:31.586Z,4.62
2017-08-06T21:31:59.015Z,5.20
2017-08-06T21:34:27.224Z,5.03
2017-08-06T21:36:54.691Z,5.07
2017-08-06T21:39:22.160Z,4.90
2017-08-06T21:41:49.617Z,4.70
2017-08-06T21:44:17.054Z,4.50
2017-08-06T21:46:44.478Z,4.18
2017-08-06T21:49:11.982Z,4.20
2017-08-06T21:51:39.438Z,4.70
2017-08-06T21:54:06.879Z,4.43
2017-08-06T21:56:34.438Z,4.30
2017-08-06T21:59:01.907Z,4.65
2017-08-06T22:01:29.362Z,4.50
2017-08-06T22:03:56.823Z,5.37
2017-08-06T22:06:24.261Z,4.70
2017-08-06T22:08:51.732Z,5.62
2017-08-06T22:11:19.181Z,5.10
2017-08-06T22:13:46.640Z,10.60
2017-08-06T22:16:15.086Z,7.93
2017-08-06T22:18:42.518Z,7.65
2017-08-06T22:21:10.726Z,6.82
2017-08-06T22:23:38.227Z,6.15
2017-08-06T22:26:05.650Z,7.05
2017-08-06T22:28:33.178Z,8.10
2017-08-06T22:31:01.607Z,7.60
2017-08-06T22:33:29.442Z,7.45
2017-08-06T22:35:56.933Z,7.32
2017-08-06T22:38:24.370Z,7.90
2017-08-06T22:40:51.833Z,7.82
2017-08-06T22:43:19.299Z,10.05
2017-08-06T22:45:46.728Z,8.10
2017-08-06T22:48:14.210Z,7.90
2017-08-06T22:50:41.653Z,7.25
2017-08-06T22:53:09.134Z,7.67
2017-08-06T22:55:36.687Z,7.00
2017-08-06T22:58:04.133Z,6.60
2017-08-06T23:00:31.583Z,6.60
2017-08-06T23:02:59.054Z,6.07
2017-08-06T23:05:26.480Z,6.25
2017-08-06T23:07:53.982Z,6.85
2017-08-06T23:10:21.421Z,9.55
2017-08-06T23:12:48.886Z,6.05
2017-08-06T23:15:16.324Z,5.93
2017-08-06T23:17:43.783Z,6.00
2017-08-06T23:20:11.245Z,6.40
2017-08-06T23:22:38.707Z,6.73
2017-08-06T23:25:06.155Z,6.20
2017-08-06T23:27:33.596Z,6.55
2017-08-06T23:30:01.028Z,7.30
2017-08-06T23:32:28.465Z,6.07
2017-08-06T23:34:56.707Z,5.90
2017-08-06T23:37:24.151Z,5.30
2017-08-06T23:39:51.622Z,5.55
2017-08-06T23:42:19.066Z,6.80
2017-08-06T23:44:46.494Z,6.28
2017-08-06T23:47:13.987Z,5.78
2017-08-06T23:49:41.422Z,5.80
2017-08-06T23:52:08.871Z,6.30
2017-08-06T23:54:36.354Z,5.60
2017-08-06T23:57:03.809Z,6.20
2017-08-06T23:59:31.235Z,5.72
